createdAt,value
2019-01-12T00:00:45.835Z,101908.72
2019-01-12T00:03:17.938Z,101913.59
2019-01-12T00:05:48.735Z,101906.92
2019-01-12T00:08:19.160Z,101911.87
2019-01-12T00:10:49.453Z,101912.28
2019-01-12T00:13:20.655Z,101913.06
2019-01-12T00:15:51.470Z,101909.20
2019-01-12T00:18:21.736Z,101907.03
2019-01-12T00:20:52.144Z,101906.95
2019-01-12T00:23:22.443Z,101908.66
2019-01-12T00:25:53.252Z,101903.78
2019-01-12T00:28:23.638Z,101907.30
2019-01-12T00:30:55.191Z,101902.19
2019-01-12T00:33:25.468Z,101893.77
2019-01-12T00:35:56.358Z,101907.44
2019-01-12T00:38:26.630Z,101896.80
2019-01-12T00:40:56.968Z,101891.56
2019-01-12T00:43:27.264Z,101895.17
2019-01-12T00:45:58.888Z,101899.99
2019-01-12T00:48:29.175Z,101897.70
2019-01-12T00:50:59.531Z,101896.73
2019-01-12T00:53:29.839Z,101893.20
2019-01-12T00:56:00.583Z,101891.06
2019-01-12T00:58:30.926Z,101895.81
2019-01-12T01:01:02.279Z,101891.37
2019-01-12T01:03:33.418Z,101900.06
2019-01-12T01:06:04.121Z,101894.83
2019-01-12T01:08:34.450Z,101892.12
2019-01-12T01:11:05.054Z,101893.47
2019-01-12T01:13:35.358Z,101890.46
2019-01-12T01:16:06.277Z,101888.17
2019-01-12T01:18:36.551Z,101896.03
2019-01-12T01:21:07.476Z,101898.34
2019-01-12T01:23:37.785Z,101895.27
2019-01-12T01:26:08.075Z,101896.15
2019-01-12T01:28:38.464Z,101897.45
2019-01-12T01:31:09.174Z,101895.22
2019-01-12T01:33:39.486Z,101897.03
2019-01-12T01:36:11.771Z,101896.19
2019-01-12T01:38:42.053Z,101893.20
2019-01-12T01:41:12.322Z,101898.30
2019-01-12T01:43:43.450Z,101895.22
2019-01-12T01:46:14.260Z,101900.95
2019-01-12T01:48:44.529Z,101896.03
2019-01-12T01:51:16.480Z,101897.09
2019-01-12T01:53:46.776Z,101897.84
2019-01-12T01:56:17.063Z,101897.84
2019-01-12T01:58:47.374Z,101900.63
2019-01-12T02:01:19.382Z,101901.80
2019-01-12T02:03:49.711Z,101899.40
2019-01-12T02:06:19.984Z,101900.95
2019-01-12T02:08:51.620Z,101895.59
2019-01-12T02:11:22.337Z,101885.41
2019-01-12T02:13:52.991Z,101892.95
2019-01-12T02:16:23.315Z,101890.30
2019-01-12T02:18:53.590Z,101892.20
2019-01-12T02:21:24.456Z,101885.50
2019-01-12T02:23:54.729Z,101883.89
2019-01-12T02:26:26.265Z,101879.44
2019-01-12T02:28:56.637Z,101891.23
2019-01-12T02:31:27.534Z,101892.13
2019-01-12T02:33:57.832Z,101884.97
2019-01-12T02:36:28.256Z,101879.59
2019-01-12T02:38:58.677Z,101882.08
2019-01-12T02:41:30.358Z,101877.02
2019-01-12T02:44:00.712Z,101869.31
2019-01-12T02:46:31.021Z,101875.28
2019-01-12T02:49:01.295Z,101877.14
2019-01-12T02:51:32.121Z,101872.70
2019-01-12T02:54:02.459Z,101869.98
2019-01-12T02:56:34.270Z,101866.45
2019-01-12T02:59:04.666Z,101870.72
2019-01-12T03:01:37.005Z,101863.28
2019-01-12T03:04:07.373Z,101861.44
2019-01-12T03:06:37.640Z,101853.20
2019-01-12T03:09:09.389Z,101849.67
2019-01-12T03:11:40.185Z,101851.40
2019-01-12T03:14:11.573Z,101856.25
2019-01-12T03:16:41.851Z,101852.60
2019-01-12T03:19:12.504Z,101850.76
2019-01-12T03:21:44.517Z,101847.79
2019-01-12T03:24:15.510Z,101849.63
2019-01-12T03:26:45.813Z,101842.23
2019-01-12T03:29:17.617Z,101850.03
2019-01-12T03:31:47.904Z,101828.76
2019-01-12T03:34:18.179Z,101826.74
2019-01-12T03:36:48.494Z,101831.97
2019-01-12T03:39:19.234Z,101828.91
2019-01-12T03:41:49.533Z,101819.92
2019-01-12T03:44:21.213Z,101814.53
2019-01-12T03:46:51.476Z,101811.66
2019-01-12T03:49:21.768Z,101808.48
2019-01-12T03:51:52.132Z,101816.11
2019-01-12T03:54:22.882Z,101814.27
2019-01-12T03:56:53.170Z,101815.98
2019-01-12T03:59:24.026Z,101805.91
2019-01-12T04:01:55.946Z,101815.70
2019-01-12T04:04:26.258Z,101807.59
2019-01-12T04:06:57.032Z,101817.14
2019-01-12T04:09:27.753Z,101812.08
2019-01-12T04:11:58.112Z,101817.45
2019-01-12T04:14:29.262Z,101811.77
2019-01-12T04:17:00.058Z,101808.16
2019-01-12T04:19:30.333Z,101807.27
2019-01-12T04:22:00.747Z,101806.67
2019-01-12T04:24:31.036Z,101806.59
2019-01-12T04:27:01.304Z,101803.39
2019-01-12T04:29:32.917Z,101799.37
2019-01-12T04:32:03.674Z,101800.78
2019-01-12T04:34:33.956Z,101793.37
2019-01-12T04:37:04.238Z,101790.63
2019-01-12T04:39:34.500Z,101794.94
2019-01-12T04:42:04.795Z,101797.59
2019-01-12T04:44:35.792Z,101799.59
2019-01-12T04:47:06.679Z,101795.39
2019-01-12T04:49:36.963Z,101791.86
2019-01-12T04:52:07.345Z,101789.30
2019-01-12T04:54:37.610Z,101791.77
2019-01-12T04:57:07.894Z,101789.34
2019-01-12T04:59:39.294Z,101788.61
2019-01-12T05:02:11.448Z,101784.62
2019-01-12T05:04:41.773Z,101787.98
2019-01-12T05:07:12.053Z,101787.22
2019-01-12T05:09:42.382Z,101769.47
2019-01-12T05:12:13.168Z,101792.00
2019-01-12T05:14:44.757Z,101798.43
2019-01-12T05:17:16.078Z,101794.06
2019-01-12T05:19:46.352Z,101795.34
2019-01-12T05:22:17.185Z,101797.05
2019-01-12T05:24:47.480Z,101791.59
2019-01-12T05:27:17.830Z,101790.97
2019-01-12T05:29:48.113Z,101789.11
2019-01-12T05:32:20.279Z,101791.02
2019-01-12T05:34:50.560Z,101790.89
2019-01-12T05:37:20.870Z,101786.03
2019-01-12T05:39:51.150Z,101795.83
2019-01-12T05:42:22.408Z,101792.75
2019-01-12T05:44:52.751Z,101800.88
2019-01-12T05:47:24.388Z,101804.38
2019-01-12T05:49:55.552Z,101798.09
2019-01-12T05:52:26.472Z,101799.77
2019-01-12T05:54:56.745Z,101795.27
2019-01-12T05:57:27.057Z,101799.73
2019-01-12T05:59:57.322Z,101803.48
2019-01-12T06:02:30.029Z,101801.66
2019-01-12T06:05:00.299Z,101797.68
2019-01-12T06:07:30.600Z,101791.91
2019-01-12T06:10:00.902Z,101795.09
2019-01-12T06:12:31.721Z,101796.11
2019-01-12T06:15:02.008Z,101799.45
2019-01-12T06:17:32.271Z,101798.56
2019-01-12T06:20:02.617Z,101799.65
2019-01-12T06:22:34.480Z,101802.60
2019-01-12T06:25:05.526Z,101802.16
2019-01-12T06:27:35.869Z,101793.06
2019-01-12T06:30:08.912Z,101799.16
2019-01-12T06:32:39.875Z,101792.14
2019-01-12T06:35:10.459Z,101784.84
2019-01-12T06:37:40.739Z,101784.14
2019-01-12T06:40:14.854Z,101780.66
2019-01-12T06:42:45.691Z,101768.19
2019-01-12T06:45:16.590Z,101780.27
2019-01-12T06:47:46.856Z,101777.38
2019-01-12T06:50:18.687Z,101766.33
2019-01-12T06:52:49.038Z,101769.37
2019-01-12T06:55:19.760Z,101764.60
2019-01-12T06:57:50.024Z,101766.66
2019-01-12T07:00:21.357Z,101759.68
2019-01-12T07:02:52.924Z,101751.04
2019-01-12T07:05:23.267Z,101747.20
2019-01-12T07:07:54.042Z,101731.19
2019-01-12T07:10:24.330Z,101730.98
2019-01-12T07:12:54.620Z,101734.86
2019-01-12T07:15:25.457Z,101731.73
2019-01-12T07:17:56.289Z,101728.30
2019-01-12T07:20:26.580Z,101729.69
2019-01-12T07:22:56.864Z,101733.97
2019-01-12T07:25:27.142Z,101731.30
2019-01-12T07:27:57.413Z,101726.62
2019-01-12T07:30:28.851Z,101736.02
2019-01-12T07:32:59.623Z,101741.86
2019-01-12T07:35:29.886Z,101743.44
2019-01-12T07:38:00.188Z,101733.83
2019-01-12T07:40:30.464Z,101726.84
2019-01-12T07:43:00.759Z,101731.07
2019-01-12T07:45:32.439Z,101731.83
2019-01-12T07:48:03.353Z,101733.52
2019-01-12T07:50:33.626Z,101728.80
2019-01-12T07:53:04.068Z,101722.09
2019-01-12T07:55:34.362Z,101726.13
2019-01-12T07:58:04.748Z,101727.17
2019-01-12T08:00:36.445Z,101721.76
2019-01-12T08:03:07.896Z,101715.20
2019-01-12T08:05:38.193Z,101712.78
2019-01-12T08:08:08.465Z,101698.85
2019-01-12T08:10:39.283Z,101693.49
2019-01-12T08:13:10.329Z,101693.51
2019-01-12T08:15:41.678Z,101688.73
2019-01-12T08:18:11.959Z,101688.30
2019-01-12T08:20:42.231Z,101682.89
2019-01-12T08:23:12.534Z,101674.17
2019-01-12T08:25:43.375Z,101671.98
2019-01-12T08:28:13.639Z,101669.83
2019-01-12T08:30:44.965Z,101661.45
2019-01-12T08:33:15.241Z,101667.16
2019-01-12T08:35:45.521Z,101646.05
2019-01-12T08:38:15.837Z,101641.66
2019-01-12T08:40:46.681Z,101645.19
2019-01-12T08:43:16.981Z,101648.70
2019-01-12T08:45:48.510Z,101647.31
2019-01-12T08:48:20.029Z,101629.80
2019-01-12T08:50:50.692Z,101626.74
2019-01-12T08:53:21.092Z,101617.07
2019-01-12T08:55:51.906Z,101617.95
2019-01-12T08:58:22.188Z,101611.79
2019-01-12T09:00:53.894Z,101622.31
2019-01-12T09:03:25.416Z,101619.02
2019-01-12T09:05:55.740Z,101631.96
2019-01-12T09:08:26.558Z,101648.10
2019-01-12T09:10:57.182Z,101652.47
2019-01-12T09:13:27.443Z,101650.33
2019-01-12T09:15:57.859Z,101623.71
2019-01-12T09:18:28.844Z,101610.69
2019-01-12T09:20:59.108Z,101607.32
2019-01-12T09:23:30.314Z,101601.79
2019-01-12T09:26:00.739Z,101606.47
2019-01-12T09:28:31.036Z,101594.74
2019-01-12T09:31:01.347Z,101590.84
2019-01-12T09:33:33.453Z,101585.34
2019-01-12T09:36:03.724Z,101588.18
2019-01-12T09:38:34.130Z,101578.02
2019-01-12T09:41:04.507Z,101566.72
2019-01-12T09:43:35.468Z,101573.73
2019-01-12T09:46:05.999Z,101570.25
2019-01-12T09:48:37.564Z,101569.95
2019-01-12T09:51:07.856Z,101575.86
2019-01-12T09:53:38.630Z,101567.27
2019-01-12T09:56:09.023Z,101574.25
2019-01-12T09:58:39.683Z,101571.83
2019-01-12T10:01:10.361Z,101566.16
2019-01-12T10:03:43.033Z,101564.44
2019-01-12T10:06:13.329Z,101559.10
2019-01-12T10:08:43.996Z,101556.83
2019-01-12T10:11:14.303Z,101553.57
2019-01-12T10:13:45.400Z,101544.91
2019-01-12T10:16:15.757Z,101536.41
2019-01-12T10:18:47.616Z,101532.89
2019-01-12T10:21:17.921Z,101527.67
2019-01-12T10:23:49.243Z,101519.97
2019-01-12T10:26:19.513Z,101510.95
2019-01-12T10:28:49.862Z,101508.05
2019-01-12T10:31:20.136Z,101502.77
2019-01-12T10:33:51.566Z,101500.20
2019-01-12T10:36:21.817Z,101480.86
2019-01-12T10:38:52.168Z,101466.48
2019-01-12T10:41:22.466Z,101472.61
2019-01-12T10:43:53.372Z,101481.42
2019-01-12T10:46:23.679Z,101486.89
2019-01-12T10:48:54.462Z,101469.24
2019-01-12T10:51:24.771Z,101466.44
2019-01-12T10:53:56.382Z,101471.61
2019-01-12T10:56:26.680Z,101470.39
2019-01-12T10:58:57.027Z,101464.76
2019-01-12T11:01:27.328Z,101462.56
2019-01-12T11:04:01.373Z,101462.99
2019-01-12T11:06:31.667Z,101457.00
2019-01-12T11:09:02.013Z,101454.64
2019-01-12T11:11:33.778Z,101443.48
2019-01-12T11:14:05.187Z,101446.17
2019-01-12T11:16:35.474Z,101434.71
2019-01-12T11:19:07.116Z,101430.03
2019-01-12T11:21:37.432Z,101424.66
2019-01-12T11:24:08.451Z,101420.47
2019-01-12T11:26:38.751Z,101413.80
2019-01-12T11:29:09.154Z,101407.83
2019-01-12T11:31:39.461Z,101411.56
2019-01-12T11:34:11.882Z,101390.45
2019-01-12T11:36:42.199Z,101390.88
2019-01-12T11:39:12.484Z,101392.16
2019-01-12T11:41:42.767Z,101381.82
2019-01-12T11:44:13.521Z,101389.81
2019-01-12T11:46:43.852Z,101391.61
2019-01-12T11:49:14.147Z,101384.34
2019-01-12T11:51:44.442Z,101379.77
2019-01-12T11:54:14.748Z,101370.89
2019-01-12T11:56:45.564Z,101361.75
2019-01-12T11:59:15.847Z,101347.23
2019-01-12T12:01:46.177Z,101344.71
2019-01-12T12:04:17.332Z,101341.94
2019-01-12T12:06:48.608Z,101339.59
2019-01-12T12:09:19.524Z,101336.73
2019-01-12T12:11:50.205Z,101327.20
2019-01-12T12:14:20.499Z,101319.87
2019-01-12T12:16:50.934Z,101307.92
2019-01-12T12:19:22.110Z,101294.33
2019-01-12T12:21:53.330Z,101275.94
2019-01-12T12:24:23.623Z,101273.64
2019-01-12T12:26:54.002Z,101276.64
2019-01-12T12:29:24.938Z,101278.25
2019-01-12T12:31:55.306Z,101269.72
2019-01-12T12:34:27.305Z,101252.56
2019-01-12T12:36:58.840Z,101253.63
2019-01-12T12:39:29.700Z,101239.14
2019-01-12T12:42:00.225Z,101236.78
2019-01-12T12:44:30.533Z,101219.36
2019-01-12T12:47:00.831Z,101222.77
2019-01-12T12:49:31.623Z,101202.19
2019-01-12T12:52:01.890Z,101203.23
2019-01-12T12:54:32.272Z,101201.91
2019-01-12T12:57:02.659Z,101196.78
2019-01-12T12:59:32.945Z,101192.56
2019-01-12T13:02:03.329Z,101190.57
2019-01-12T13:04:35.548Z,101186.59
2019-01-12T13:07:05.872Z,101179.27
2019-01-12T13:09:36.177Z,101173.94
2019-01-12T13:12:07.140Z,101169.19
2019-01-12T13:14:38.033Z,101166.70
2019-01-12T13:17:08.716Z,101171.08
2019-01-12T13:19:39.033Z,101160.05
2019-01-12T13:22:09.502Z,101159.67
2019-01-12T13:24:40.314Z,101166.20
2019-01-12T13:27:11.682Z,101155.31
2019-01-12T13:29:42.016Z,101144.20
2019-01-12T13:32:12.327Z,101138.09
2019-01-12T13:34:43.123Z,101135.81
2019-01-12T13:37:13.467Z,101127.88
2019-01-12T13:39:43.851Z,101114.00
2019-01-12T13:42:14.944Z,101120.36
2019-01-12T13:44:45.759Z,101120.06
2019-01-12T13:47:20.753Z,101113.08
2019-01-12T13:49:48.137Z,101118.68
2019-01-12T13:52:18.432Z,101103.35
2019-01-12T13:54:48.757Z,101097.86
2019-01-12T13:57:19.522Z,101095.58
2019-01-12T13:59:51.088Z,101109.42
2019-01-12T14:02:21.908Z,101084.86
2019-01-12T14:04:52.582Z,101081.98
2019-01-12T14:07:23.123Z,101076.49
2019-01-12T14:09:54.076Z,101077.22
2019-01-12T14:12:24.791Z,101075.94
2019-01-12T14:14:55.095Z,101079.59
2019-01-12T14:17:26.983Z,101074.80
2019-01-12T14:19:57.794Z,101070.42
2019-01-12T14:22:28.199Z,101065.72
2019-01-12T14:25:00.826Z,101073.05
2019-01-12T14:27:31.222Z,101081.20
2019-01-12T14:30:02.403Z,101064.83
2019-01-12T14:32:33.935Z,101058.34
2019-01-12T14:35:04.643Z,101058.98
2019-01-12T14:37:35.038Z,101059.51
2019-01-12T14:40:07.449Z,101061.97
2019-01-12T14:42:37.786Z,101051.78
2019-01-12T14:45:10.760Z,101038.88
2019-01-12T14:47:42.366Z,101038.52
2019-01-12T14:50:13.246Z,101039.95
2019-01-12T14:52:43.525Z,101035.05
2019-01-12T14:55:14.604Z,101037.95
2019-01-12T14:57:44.967Z,101027.66
2019-01-12T15:00:18.250Z,101033.75
2019-01-12T15:02:48.538Z,101021.94
2019-01-12T15:05:23.185Z,101025.98
2019-01-12T15:07:53.542Z,101026.97
2019-01-12T15:10:24.483Z,101024.23
2019-01-12T15:12:54.958Z,101016.55
2019-01-12T15:15:25.674Z,101014.91
2019-01-12T15:17:56.106Z,101018.50
2019-01-12T15:20:32.747Z,101021.58
2019-01-12T15:23:03.078Z,101010.91
2019-01-12T15:25:33.513Z,101003.60
2019-01-12T15:28:09.033Z,101026.59
2019-01-12T15:30:36.369Z,101024.45
2019-01-12T15:33:08.601Z,101011.64
2019-01-12T15:35:40.540Z,101007.92
2019-01-12T15:38:12.347Z,101015.19
2019-01-12T15:40:43.251Z,101007.31
2019-01-12T15:43:13.657Z,101011.02
2019-01-12T15:45:43.955Z,101012.34
2019-01-12T15:48:14.635Z,101007.67
2019-01-12T15:50:45.461Z,101001.28
2019-01-12T15:53:15.738Z,101012.57
2019-01-12T15:55:46.675Z,100997.42
2019-01-12T15:58:16.983Z,100995.02
2019-01-12T16:00:47.243Z,100996.26
2019-01-12T16:03:17.529Z,100990.41
2019-01-12T16:05:48.862Z,100989.63
2019-01-12T16:08:19.383Z,100979.81
2019-01-12T16:10:49.656Z,100979.41
2019-01-12T16:13:20.061Z,100974.39
2019-01-12T16:15:50.799Z,100971.52
2019-01-12T16:18:21.163Z,100977.25
2019-01-12T16:20:51.553Z,100964.70
2019-01-12T16:23:21.952Z,100956.55
2019-01-12T16:25:52.756Z,100968.14
2019-01-12T16:28:23.630Z,100962.70
2019-01-12T16:30:53.930Z,100958.96
2019-01-12T16:33:24.333Z,100956.33
2019-01-12T16:35:55.192Z,100962.86
2019-01-12T16:38:25.598Z,100946.77
2019-01-12T16:40:55.884Z,100943.72
2019-01-12T16:43:26.947Z,100947.55
2019-01-12T16:45:57.726Z,100948.45
2019-01-12T16:48:28.146Z,100941.88
2019-01-12T16:50:58.435Z,100948.20
2019-01-12T16:53:28.711Z,100945.02
2019-01-12T16:55:59.517Z,100945.56
2019-01-12T16:58:30.714Z,100953.62
2019-01-12T17:01:02.499Z,100943.64
2019-01-12T17:03:32.775Z,100940.55
2019-01-12T17:06:04.238Z,100938.58
2019-01-12T17:08:34.545Z,100931.82
2019-01-12T17:11:04.939Z,100940.74
2019-01-12T17:13:35.199Z,100943.07
2019-01-12T17:16:08.656Z,100939.83
2019-01-12T17:18:39.888Z,100945.22
2019-01-12T17:21:10.177Z,100950.48
2019-01-12T17:23:40.457Z,100945.92
2019-01-12T17:26:11.243Z,100937.66
2019-01-12T17:28:41.596Z,100925.03
2019-01-12T17:31:12.458Z,100920.55
2019-01-12T17:33:42.777Z,100927.34
2019-01-12T17:36:13.743Z,100927.23
2019-01-12T17:38:44.086Z,100920.39
2019-01-12T17:41:14.461Z,100910.92
2019-01-12T17:43:44.888Z,100901.65
2019-01-12T17:46:15.692Z,100910.41
2019-01-12T17:48:46.587Z,100910.38
2019-01-12T17:51:16.911Z,100907.59
2019-01-12T17:53:47.313Z,100908.09
2019-01-12T17:56:18.065Z,100903.59
2019-01-12T17:58:49.544Z,100905.34
2019-01-12T18:01:20.823Z,100911.30
2019-01-12T18:03:52.427Z,100904.67
2019-01-12T18:06:24.501Z,100899.27
2019-01-12T18:08:55.234Z,100898.69
2019-01-12T18:11:25.554Z,100896.09
2019-01-12T18:13:55.875Z,100896.57
2019-01-12T18:16:26.719Z,100894.92
2019-01-12T18:18:57.886Z,100891.30
2019-01-12T18:21:28.198Z,100901.01
2019-01-12T18:23:58.490Z,100898.91
2019-01-12T18:26:29.274Z,100896.91
2019-01-12T18:28:59.600Z,100902.49
2019-01-12T18:31:29.952Z,100907.55
2019-01-12T18:34:00.309Z,100916.98
2019-01-12T18:36:32.504Z,100917.89
2019-01-12T18:39:02.971Z,100925.36
2019-01-12T18:41:33.430Z,100914.61
2019-01-12T18:44:03.910Z,100915.58
2019-01-12T18:46:35.140Z,100928.03
2019-01-12T18:49:05.443Z,100926.90
2019-01-12T18:51:37.224Z,100907.86
2019-01-12T18:54:07.633Z,100913.72
2019-01-12T18:56:38.501Z,100925.39
2019-01-12T18:59:08.755Z,100917.23
2019-01-12T19:01:39.162Z,100918.53
2019-01-12T19:04:09.467Z,100923.28
2019-01-12T19:06:41.504Z,100920.48
2019-01-12T19:09:11.800Z,100913.17
2019-01-12T19:11:42.491Z,100927.30
2019-01-12T19:14:12.794Z,100934.58
2019-01-12T19:16:43.660Z,100935.00
2019-01-12T19:19:13.956Z,100920.84
2019-01-12T19:21:45.453Z,100922.54
2019-01-12T19:24:15.729Z,100932.66
2019-01-12T19:26:47.010Z,100921.84
2019-01-12T19:29:17.291Z,100905.23
2019-01-12T19:31:47.585Z,100911.34
2019-01-12T19:34:18.228Z,100914.27
2019-01-12T19:36:49.067Z,100901.84
2019-01-12T19:39:20.787Z,100907.56
2019-01-12T19:41:51.830Z,100897.81
2019-01-12T19:44:22.135Z,100899.01
2019-01-12T19:46:52.901Z,100902.92
2019-01-12T19:49:23.319Z,100895.48
2019-01-12T19:51:53.601Z,100913.73
2019-01-12T19:54:23.891Z,100910.09
2019-01-12T19:56:54.744Z,100908.88
2019-01-12T19:59:25.514Z,100904.76
2019-01-12T20:01:55.789Z,100892.82
2019-01-12T20:04:26.361Z,100892.80
2019-01-12T20:06:57.324Z,100897.22
2019-01-12T20:09:27.644Z,100892.77
2019-01-12T20:11:58.507Z,100890.31
2019-01-12T20:14:28.813Z,100887.87
2019-01-12T20:16:59.088Z,100886.31
2019-01-12T20:19:29.489Z,100886.81
2019-01-12T20:21:59.814Z,100884.33
2019-01-12T20:24:30.651Z,100888.06
2019-01-12T20:27:01.073Z,100881.75
2019-01-12T20:29:31.382Z,100884.83
2019-01-12T20:32:30.133Z,100884.47
2019-01-12T20:35:25.240Z,100882.76
2019-01-12T20:38:22.503Z,100876.50
2019-01-12T20:41:41.224Z,100882.05
2019-01-12T20:44:58.625Z,100883.82
2019-01-12T20:47:57.144Z,100878.66
2019-01-12T20:51:11.005Z,100874.72
2019-01-12T20:54:29.442Z,100881.94
2019-01-12T20:57:20.165Z,100880.84
2019-01-12T21:00:37.272Z,100878.65
2019-01-12T21:03:40.913Z,100878.38
2019-01-12T21:06:46.298Z,100884.75
2019-01-12T21:09:39.175Z,100872.95
2019-01-12T21:12:43.730Z,100871.17
2019-01-12T21:15:38.311Z,100868.72
2019-01-12T21:18:09.401Z,100865.25
2019-01-12T21:20:39.716Z,100870.66
2019-01-12T21:23:10.508Z,100866.81
2019-01-12T21:25:43.189Z,100868.56
2019-01-12T21:28:13.486Z,100859.94
2019-01-12T21:30:43.784Z,100855.12
2019-01-12T21:33:14.564Z,100859.23
2019-01-12T21:35:45.005Z,100859.17
2019-01-12T21:38:15.281Z,100857.25
2019-01-12T21:40:48.139Z,100855.90
2019-01-12T21:43:18.951Z,100854.45
2019-01-12T21:45:49.690Z,100864.20
2019-01-12T21:48:20.031Z,100852.11
2019-01-12T21:50:50.361Z,100859.30
2019-01-12T21:53:21.199Z,100856.59
2019-01-12T21:55:52.809Z,100860.93
2019-01-12T21:58:23.231Z,100852.56
2019-01-12T22:00:53.534Z,100851.84
2019-01-12T22:03:24.345Z,100859.45
2019-01-12T22:05:54.733Z,100862.17
2019-01-12T22:08:25.084Z,100858.55
2019-01-12T22:10:56.615Z,100851.62
2019-01-12T22:13:27.803Z,100855.45
2019-01-12T22:15:58.109Z,100859.30
2019-01-12T22:18:28.506Z,100859.79
2019-01-12T22:20:59.269Z,100860.27
2019-01-12T22:23:30.105Z,100848.52
2019-01-12T22:26:00.441Z,100852.96
2019-01-12T22:28:30.766Z,100851.29
2019-01-12T22:31:01.531Z,100857.47
2019-01-12T22:33:32.326Z,100857.70
2019-01-12T22:36:02.718Z,100862.52
2019-01-12T22:38:33.191Z,100861.92
2019-01-12T22:41:03.638Z,100865.17
2019-01-12T22:43:34.536Z,100867.08
2019-01-12T22:46:05.742Z,100862.34
2019-01-12T22:48:36.040Z,100860.34
2019-01-12T22:51:07.912Z,100860.30
2019-01-12T22:53:38.655Z,100854.56
2019-01-12T22:56:09.053Z,100855.11
2019-01-12T22:58:39.352Z,100849.45
2019-01-12T23:01:35.040Z,100847.91
2019-01-12T23:04:05.717Z,100849.09
2019-01-12T23:06:36.696Z,100850.02
2019-01-12T23:09:11.164Z,100852.39
2019-01-12T23:11:42.356Z,100847.75
2019-01-12T23:14:13.639Z,100843.73
2019-01-12T23:16:45.560Z,100843.45
2019-01-12T23:19:16.023Z,100842.33
2019-01-12T23:21:46.380Z,100842.73
2019-01-12T23:24:16.748Z,100840.98
2019-01-12T23:26:47.751Z,100840.23
2019-01-12T23:29:18.154Z,100833.64
2019-01-12T23:31:48.456Z,100832.23
2019-01-12T23:34:19.779Z,100827.66
2019-01-12T23:36:50.618Z,100822.73
2019-01-12T23:39:20.971Z,100823.87
2019-01-12T23:41:51.347Z,100815.75
2019-01-12T23:44:21.662Z,100817.49
2019-01-12T23:46:52.101Z,100819.44
2019-01-12T23:49:22.967Z,100815.88
2019-01-12T23:51:53.270Z,100810.28
2019-01-12T23:54:24.386Z,100815.51
2019-01-12T23:56:54.664Z,100815.06
2019-01-12T23:59:24.956Z,100822.16
